GAP2380 RPVM-RPVI
Flight info
| Callsign | GAP2380 |
|---|---|
| Flight time | 0h 26m |
| Altitude | 16000 |
| Route | KEVAN1Q KEVAN TR2 BCD BCD2N |
| Aircraft | DH8D/M-SDE2E3FGRY/H |
Departure
| Time | 2026-04-25 05:17 |
|---|---|
| Airport | Mactan Cebu International Airport (RPVM) |
Arrival
| Time | 2026-04-25 05:44 |
|---|---|
| Airport | Iloilo International Airport (RPVI) |
| Time | Latitude | Longitude | Altitude | Speed | Heading |
|---|---|---|---|---|---|
| 2026-04-25 05:00 | 10.31765 | 123.98259 | 38 ft | 0 kts | 44° |
| 2026-04-25 05:07 | 10.31766 | 123.98260 | 37 ft | 0 kts | 44° |
| 2026-04-25 05:07 | 10.31758 | 123.98252 | 37 ft | 2 kts | 48° |
| 2026-04-25 05:07 | 10.31753 | 123.98244 | 37 ft | 2 kts | 69° |
| 2026-04-25 05:08 | 10.31750 | 123.98229 | 37 ft | 2 kts | 96° |
| 2026-04-25 05:08 | 10.31758 | 123.98211 | 37 ft | 2 kts | 132° |
| 2026-04-25 05:08 | 10.31759 | 123.98209 | 37 ft | 1 kts | 135° |
| 2026-04-25 05:08 | 10.31741 | 123.98216 | 37 ft | 3 kts | 184° |
| 2026-04-25 05:09 | 10.31722 | 123.98205 | 37 ft | 4 kts | 231° |
| 2026-04-25 05:09 | 10.31697 | 123.98179 | 37 ft | 3 kts | 225° |
| 2026-04-25 05:09 | 10.31691 | 123.98173 | 37 ft | 0 kts | 225° |
| 2026-04-25 05:11 | 10.31690 | 123.98171 | 37 ft | 0 kts | 225° |
| 2026-04-25 05:12 | 10.31650 | 123.98134 | 37 ft | 5 kts | 221° |
| 2026-04-25 05:12 | 10.31613 | 123.98117 | 37 ft | 5 kts | 180° |
| 2026-04-25 05:12 | 10.31573 | 123.98139 | 37 ft | 8 kts | 136° |
| 2026-04-25 05:12 | 10.31524 | 123.98189 | 37 ft | 10 kts | 134° |
| 2026-04-25 05:13 | 10.31484 | 123.98229 | 37 ft | 6 kts | 149° |
| 2026-04-25 05:13 | 10.31442 | 123.98221 | 37 ft | 7 kts | 222° |
| 2026-04-25 05:13 | 10.31394 | 123.98173 | 37 ft | 11 kts | 225° |
| 2026-04-25 05:13 | 10.31325 | 123.98105 | 37 ft | 15 kts | 224° |
| 2026-04-25 05:14 | 10.31239 | 123.98017 | 37 ft | 19 kts | 225° |
| 2026-04-25 05:14 | 10.31137 | 123.97916 | 37 ft | 21 kts | 225° |
| 2026-04-25 05:14 | 10.31026 | 123.97804 | 37 ft | 23 kts | 225° |
| 2026-04-25 05:15 | 10.30800 | 123.97575 | 37 ft | 19 kts | 225° |
| 2026-04-25 05:15 | 10.30701 | 123.97477 | 37 ft | 19 kts | 224° |
| 2026-04-25 05:15 | 10.30606 | 123.97382 | 37 ft | 18 kts | 224° |
| 2026-04-25 05:15 | 10.30522 | 123.97297 | 37 ft | 16 kts | 224° |
| 2026-04-25 05:16 | 10.30445 | 123.97221 | 37 ft | 15 kts | 225° |
| 2026-04-25 05:16 | 10.30381 | 123.97162 | 37 ft | 10 kts | 203° |
| 2026-04-25 05:16 | 10.30323 | 123.97186 | 37 ft | 9 kts | 140° |
| 2026-04-25 05:16 | 10.30297 | 123.97208 | 37 ft | 1 kts | 100° |
| 2026-04-25 05:17 | 10.30316 | 123.97231 | 37 ft | 15 kts | 45° |
| 2026-04-25 05:17 | 10.30613 | 123.97530 | 37 ft | 106 kts | 45° |
| 2026-04-25 05:17 | 10.31281 | 123.98208 | 168 ft | 151 kts | 45° |
| 2026-04-25 05:17 | 10.32060 | 123.99000 | 682 ft | 166 kts | 45° |
| 2026-04-25 05:18 | 10.32899 | 123.99847 | 1342 ft | 175 kts | 46° |
| 2026-04-25 05:18 | 10.33757 | 124.00711 | 2109 ft | 177 kts | 46° |
| 2026-04-25 05:18 | 10.34646 | 124.01601 | 2740 ft | 181 kts | 45° |
| 2026-04-25 05:18 | 10.35721 | 124.02238 | 3353 ft | 189 kts | 11° |
| 2026-04-25 05:19 | 10.37011 | 124.01848 | 3867 ft | 207 kts | 321° |
| 2026-04-25 05:19 | 10.37811 | 124.00634 | 4458 ft | 214 kts | 297° |
| 2026-04-25 05:19 | 10.38396 | 123.99241 | 5078 ft | 217 kts | 294° |
| 2026-04-25 05:19 | 10.38963 | 123.97820 | 5703 ft | 218 kts | 294° |
| 2026-04-25 05:20 | 10.39525 | 123.96390 | 6308 ft | 219 kts | 294° |
| 2026-04-25 05:20 | 10.40082 | 123.94962 | 6881 ft | 221 kts | 294° |
| 2026-04-25 05:20 | 10.40647 | 123.93504 | 7453 ft | 223 kts | 293° |
| 2026-04-25 05:20 | 10.41212 | 123.92037 | 8003 ft | 225 kts | 293° |
| 2026-04-25 05:21 | 10.41785 | 123.90550 | 8537 ft | 227 kts | 293° |
| 2026-04-25 05:21 | 10.42357 | 123.89062 | 9063 ft | 229 kts | 292° |
| 2026-04-25 05:21 | 10.42934 | 123.87557 | 9570 ft | 231 kts | 292° |
| 2026-04-25 05:21 | 10.43517 | 123.86037 | 10094 ft | 230 kts | 292° |
| 2026-04-25 05:22 | 10.44092 | 123.84535 | 10588 ft | 231 kts | 292° |
| 2026-04-25 05:22 | 10.44680 | 123.82998 | 11089 ft | 233 kts | 292° |
| 2026-04-25 05:22 | 10.45263 | 123.81473 | 11572 ft | 234 kts | 292° |
| 2026-04-25 05:22 | 10.45853 | 123.79932 | 12025 ft | 235 kts | 291° |
| 2026-04-25 05:23 | 10.46445 | 123.78382 | 12468 ft | 237 kts | 291° |
| 2026-04-25 05:23 | 10.47042 | 123.76820 | 12927 ft | 238 kts | 291° |
| 2026-04-25 05:23 | 10.47644 | 123.75246 | 13333 ft | 240 kts | 291° |
| 2026-04-25 05:23 | 10.48242 | 123.73679 | 13744 ft | 241 kts | 291° |
| 2026-04-25 05:24 | 10.48850 | 123.72089 | 14144 ft | 243 kts | 291° |
| 2026-04-25 05:24 | 10.49463 | 123.70486 | 14541 ft | 244 kts | 291° |
| 2026-04-25 05:24 | 10.50081 | 123.68868 | 14903 ft | 246 kts | 291° |
| 2026-04-25 05:24 | 10.50699 | 123.67249 | 15282 ft | 247 kts | 291° |
| 2026-04-25 05:25 | 10.51321 | 123.65623 | 15657 ft | 250 kts | 291° |
| 2026-04-25 05:25 | 10.51971 | 123.63919 | 15856 ft | 265 kts | 291° |
| 2026-04-25 05:25 | 10.52656 | 123.62119 | 15929 ft | 287 kts | 291° |
| 2026-04-25 05:25 | 10.53422 | 123.60105 | 15957 ft | 318 kts | 291° |
| 2026-04-25 05:26 | 10.54242 | 123.57943 | 15957 ft | 342 kts | 291° |
| 2026-04-25 05:26 | 10.55120 | 123.55625 | 15952 ft | 360 kts | 291° |
| 2026-04-25 05:26 | 10.56039 | 123.53200 | 15946 ft | 370 kts | 291° |
| 2026-04-25 05:26 | 10.56966 | 123.50755 | 15933 ft | 368 kts | 291° |
| 2026-04-25 05:27 | 10.57875 | 123.48359 | 15935 ft | 366 kts | 291° |
| 2026-04-25 05:27 | 10.58785 | 123.45961 | 15940 ft | 365 kts | 291° |
| 2026-04-25 05:27 | 10.59702 | 123.43549 | 15947 ft | 363 kts | 291° |
| 2026-04-25 05:27 | 10.60608 | 123.41168 | 15957 ft | 362 kts | 291° |
| 2026-04-25 05:28 | 10.61523 | 123.38764 | 15964 ft | 362 kts | 291° |
| 2026-04-25 05:28 | 10.62424 | 123.36396 | 15970 ft | 361 kts | 291° |
| 2026-04-25 05:28 | 10.63331 | 123.34013 | 15975 ft | 361 kts | 291° |
| 2026-04-25 05:28 | 10.64233 | 123.31641 | 15982 ft | 361 kts | 291° |
| 2026-04-25 05:29 | 10.65141 | 123.29256 | 15987 ft | 361 kts | 291° |
| 2026-04-25 05:29 | 10.66047 | 123.26876 | 15992 ft | 361 kts | 291° |
| 2026-04-25 05:29 | 10.66950 | 123.24504 | 15999 ft | 363 kts | 291° |
| 2026-04-25 05:29 | 10.67869 | 123.22096 | 15992 ft | 364 kts | 291° |
| 2026-04-25 05:30 | 10.68917 | 123.19750 | 15993 ft | 365 kts | 296° |
| 2026-04-25 05:30 | 10.70040 | 123.17437 | 15982 ft | 366 kts | 296° |
| 2026-04-25 05:30 | 10.71168 | 123.15108 | 15975 ft | 367 kts | 296° |
| 2026-04-25 05:30 | 10.72286 | 123.12792 | 15968 ft | 367 kts | 296° |
| 2026-04-25 05:31 | 10.73410 | 123.10453 | 15962 ft | 367 kts | 296° |
| 2026-04-25 05:31 | 10.74526 | 123.08125 | 15956 ft | 368 kts | 295° |
| 2026-04-25 05:31 | 10.75647 | 123.05778 | 15949 ft | 366 kts | 295° |
| 2026-04-25 05:31 | 10.76652 | 123.03423 | 15921 ft | 361 kts | 287° |
| 2026-04-25 05:32 | 10.76794 | 123.00919 | 15795 ft | 359 kts | 261° |
| 2026-04-25 05:32 | 10.76105 | 122.98465 | 15431 ft | 365 kts | 250° |
| 2026-04-25 05:32 | 10.75245 | 122.95998 | 14960 ft | 372 kts | 249° |
| 2026-04-25 05:32 | 10.74376 | 122.93566 | 14451 ft | 360 kts | 249° |
| 2026-04-25 05:33 | 10.73531 | 122.91215 | 13992 ft | 354 kts | 249° |
| 2026-04-25 05:33 | 10.72691 | 122.88874 | 13530 ft | 349 kts | 249° |
| 2026-04-25 05:33 | 10.71874 | 122.86599 | 13077 ft | 345 kts | 249° |
| 2026-04-25 05:33 | 10.71054 | 122.84317 | 12651 ft | 340 kts | 249° |
| 2026-04-25 05:34 | 10.70248 | 122.82076 | 12215 ft | 339 kts | 249° |
| 2026-04-25 05:34 | 10.69437 | 122.79820 | 11767 ft | 338 kts | 249° |
| 2026-04-25 05:34 | 10.68637 | 122.77599 | 11313 ft | 327 kts | 249° |
| 2026-04-25 05:34 | 10.67881 | 122.75504 | 10897 ft | 313 kts | 249° |
| 2026-04-25 05:35 | 10.67143 | 122.73451 | 10490 ft | 301 kts | 249° |
| 2026-04-25 05:35 | 10.66438 | 122.71490 | 10102 ft | 290 kts | 249° |
| 2026-04-25 05:35 | 10.65757 | 122.69595 | 9725 ft | 280 kts | 249° |
| 2026-04-25 05:35 | 10.65103 | 122.67769 | 9370 ft | 277 kts | 249° |
| 2026-04-25 05:36 | 10.64445 | 122.65935 | 9013 ft | 277 kts | 249° |
| 2026-04-25 05:36 | 10.63783 | 122.64091 | 8646 ft | 277 kts | 249° |
| 2026-04-25 05:36 | 10.63119 | 122.62244 | 8283 ft | 279 kts | 249° |
| 2026-04-25 05:36 | 10.62449 | 122.60381 | 7914 ft | 282 kts | 249° |
| 2026-04-25 05:37 | 10.61778 | 122.58521 | 7543 ft | 283 kts | 249° |
| 2026-04-25 05:37 | 10.61098 | 122.56635 | 7166 ft | 282 kts | 249° |
| 2026-04-25 05:37 | 10.60427 | 122.54777 | 6796 ft | 281 kts | 249° |
| 2026-04-25 05:37 | 10.59758 | 122.52922 | 6426 ft | 281 kts | 249° |
| 2026-04-25 05:38 | 10.59083 | 122.51047 | 6041 ft | 280 kts | 250° |
| 2026-04-25 05:38 | 10.58755 | 122.49153 | 5589 ft | 271 kts | 276° |
| 2026-04-25 05:38 | 10.59379 | 122.47390 | 5290 ft | 264 kts | 302° |
| 2026-04-25 05:38 | 10.60336 | 122.45802 | 4944 ft | 262 kts | 304° |
| 2026-04-25 05:39 | 10.61293 | 122.44260 | 4591 ft | 253 kts | 304° |
| 2026-04-25 05:39 | 10.62452 | 122.42956 | 4023 ft | 247 kts | 332° |
| 2026-04-25 05:39 | 10.64025 | 122.42597 | 3750 ft | 223 kts | 9° |
| 2026-04-25 05:39 | 10.65484 | 122.42960 | 3499 ft | 209 kts | 19° |
| 2026-04-25 05:40 | 10.66840 | 122.43382 | 3235 ft | 199 kts | 20° |
| 2026-04-25 05:40 | 10.68162 | 122.43816 | 2985 ft | 198 kts | 20° |
| 2026-04-25 05:40 | 10.69451 | 122.44253 | 2732 ft | 194 kts | 20° |
| 2026-04-25 05:40 | 10.70734 | 122.44698 | 2480 ft | 193 kts | 21° |
| 2026-04-25 05:41 | 10.71984 | 122.45138 | 2214 ft | 182 kts | 21° |
| 2026-04-25 05:41 | 10.73110 | 122.45534 | 1990 ft | 159 kts | 22° |
| 2026-04-25 05:41 | 10.74072 | 122.45877 | 1801 ft | 136 kts | 22° |
| 2026-04-25 05:41 | 10.74927 | 122.46191 | 1646 ft | 126 kts | 24° |
| 2026-04-25 05:42 | 10.75757 | 122.46507 | 1481 ft | 127 kts | 24° |
| 2026-04-25 05:42 | 10.76591 | 122.46824 | 1311 ft | 128 kts | 24° |
| 2026-04-25 05:42 | 10.77428 | 122.47138 | 1137 ft | 127 kts | 23° |
| 2026-04-25 05:42 | 10.78258 | 122.47449 | 972 ft | 128 kts | 23° |
| 2026-04-25 05:43 | 10.79099 | 122.47762 | 795 ft | 127 kts | 24° |
| 2026-04-25 05:43 | 10.79914 | 122.48078 | 679 ft | 125 kts | 25° |
| 2026-04-25 05:43 | 10.80738 | 122.48386 | 547 ft | 128 kts | 22° |
| 2026-04-25 05:43 | 10.81578 | 122.48698 | 360 ft | 126 kts | 22° |
| 2026-04-25 05:44 | 10.82386 | 122.48994 | 197 ft | 121 kts | 23° |
| 2026-04-25 05:44 | 10.83095 | 122.49260 | 177 ft | 84 kts | 21° |
| 2026-04-25 05:44 | 10.83444 | 122.49389 | 177 ft | 23 kts | 20° |
| 2026-04-25 05:44 | 10.83542 | 122.49427 | 177 ft | 7 kts | 34° |
| 2026-04-25 05:45 | 10.83559 | 122.49465 | 177 ft | 6 kts | 93° |
| 2026-04-25 05:45 | 10.83542 | 122.49522 | 177 ft | 10 kts | 109° |
| 2026-04-25 05:45 | 10.83517 | 122.49593 | 177 ft | 9 kts | 110° |
| 2026-04-25 05:45 | 10.83496 | 122.49647 | 176 ft | 7 kts | 116° |
| 2026-04-25 05:46 | 10.83451 | 122.49679 | 177 ft | 9 kts | 180° |
| 2026-04-25 05:46 | 10.83382 | 122.49657 | 177 ft | 10 kts | 201° |
| 2026-04-25 05:46 | 10.83318 | 122.49633 | 177 ft | 8 kts | 200° |
| 2026-04-25 05:46 | 10.83265 | 122.49614 | 177 ft | 8 kts | 201° |
| 2026-04-25 05:47 | 10.83220 | 122.49597 | 177 ft | 5 kts | 201° |
| 2026-04-25 05:47 | 10.83188 | 122.49585 | 177 ft | 4 kts | 190° |
| 2026-04-25 05:47 | 10.83166 | 122.49599 | 177 ft | 5 kts | 118° |
| 2026-04-25 05:47 | 10.83154 | 122.49633 | 176 ft | 4 kts | 109° |
| 2026-04-25 05:48 | 10.83150 | 122.49643 | 176 ft | 0 kts | 110° |